Time;durP1;ratioP1;P1;durP2;ratioP2;P2;SDS_P1;SDS_P2;PMS_P1;PMS_P2;Temp;Humidity;BMP_temperature;BMP_pressure;BME280_temperature;BME280_humidity;BME280_pressure;Samples;Min_cycle;Max_cycle;Signal;HPM_P1;HPM_P2
2024/03/16 00:00:43;;;;;;;41.07;26.20;;;;;22.40;99930.00;;;;2060513;28;20211;-66
2024/03/16 00:01:43;;;;;;;38.87;24.77;;;;;22.40;99933.00;;;;2055227;28;20269;-62
2024/03/16 00:02:44;;;;;;;34.13;24.00;;;;;22.40;99930.00;;;;2055048;28;20473;-64
2024/03/16 00:03:45;;;;;;;38.05;25.40;;;;;22.40;99932.00;;;;2063048;28;20254;-64
2024/03/16 00:04:46;;;;;;;37.57;24.03;;;;;22.40;99929.00;;;;2045682;28;20223;-62
2024/03/16 00:05:46;;;;;;;36.65;24.70;;;;;22.40;99942.00;;;;2062500;28;20226;-62
2024/03/16 00:06:47;;;;;;;33.90;23.67;;;;;22.40;99922.00;;;;2055531;28;20219;-65
2024/03/16 00:07:47;;;;;;;36.57;24.33;;;;;22.40;99931.00;;;;2063882;28;20229;-63
2024/03/16 00:08:48;;;;;;;32.93;23.67;;;;;22.40;99928.00;;;;2059352;28;20211;-63
2024/03/16 00:09:48;;;;;;;35.20;23.30;;;;;22.40;99923.00;;;;2048074;28;20225;-63
2024/03/16 00:10:49;;;;;;;35.23;23.97;;;;;22.40;99927.00;;;;2061862;28;20250;-63
2024/03/16 00:11:49;;;;;;;34.73;23.33;;;;;22.40;99909.00;;;;2056863;28;20254;-63
2024/03/16 00:12:50;;;;;;;36.60;22.93;;;;;22.40;99933.00;;;;2049055;28;20700;-63
2024/03/16 00:13:50;;;;;;;32.67;22.97;;;;;22.40;99932.00;;;;2051152;28;20220;-63
2024/03/16 00:14:51;;;;;;;31.57;22.07;;;;;22.40;99929.00;;;;2052393;28;20298;-63
2024/03/16 00:15:51;;;;;;;37.87;22.90;;;;;22.40;99937.00;;;;2053375;28;20223;-63
2024/03/16 00:16:52;;;;;;;33.83;22.10;;;;;22.30;99924.00;;;;2058057;28;20215;-63
2024/03/16 00:17:53;;;;;;;33.67;22.30;;;;;22.40;99938.00;;;;2045807;28;20244;-63
2024/03/16 00:18:53;;;;;;;31.75;21.27;;;;;22.40;99934.00;;;;2053622;28;20224;-63
2024/03/16 00:19:54;;;;;;;31.50;22.10;;;;;22.40;99939.00;;;;2043798;28;21296;-63
2024/03/16 00:20:55;;;;;;;29.70;21.67;;;;;22.40;99937.00;;;;2045761;28;20651;-63
2024/03/16 00:21:55;;;;;;;30.98;20.77;;;;;22.30;99931.00;;;;2062680;28;20325;-63
2024/03/16 00:22:56;;;;;;;33.93;20.83;;;;;22.40;99933.00;;;;2045967;28;20212;-62
2024/03/16 00:23:56;;;;;;;33.10;20.90;;;;;22.30;99936.00;;;;2052929;28;20236;-62
2024/03/16 00:24:57;;;;;;;35.07;22.80;;;;;22.30;99937.00;;;;2048289;28;20299;-62
2024/03/16 00:25:57;;;;;;;32.40;20.60;;;;;22.30;99934.00;;;;2060137;28;20713;-62
2024/03/16 00:26:57;;;;;;;30.53;20.93;;;;;22.30;99924.00;;;;2062219;28;20880;-63
2024/03/16 00:27:58;;;;;;;28.93;21.33;;;;;22.30;99934.00;;;;2046766;28;20709;-64
2024/03/16 00:28:58;;;;;;;32.60;20.03;;;;;22.30;99931.00;;;;2046166;28;20275;-63
2024/03/16 00:29:59;;;;;;;31.83;21.73;;;;;22.30;99931.00;;;;2037054;28;20590;-63
2024/03/16 00:30:59;;;;;;;28.40;19.70;;;;;22.30;99923.00;;;;2053181;28;20270;-63
2024/03/16 00:32:00;;;;;;;30.90;19.30;;;;;22.30;99938.00;;;;2037311;28;20452;-64
2024/03/16 00:33:03;;;;;;;29.10;18.92;;;;;22.30;99927.00;;;;2046029;28;20256;-63
2024/03/16 00:34:04;;;;;;;26.53;19.40;;;;;22.30;99939.00;;;;2061252;28;20269;-62
2024/03/16 00:35:04;;;;;;;31.52;19.23;;;;;22.30;99923.00;;;;2053994;28;20218;-64
2024/03/16 00:36:05;;;;;;;28.40;18.90;;;;;22.30;99928.00;;;;2051187;28;20307;-65
2024/03/16 00:37:05;;;;;;;29.03;18.37;;;;;22.30;99927.00;;;;2041330;28;20703;-62
2024/03/16 00:38:05;;;;;;;27.03;19.10;;;;;22.30;99924.00;;;;2039993;28;20247;-65
2024/03/16 00:39:15;;;;;;;28.47;19.77;;;;;22.30;99925.00;;;;2054391;28;20214;-64
2024/03/16 00:40:17;;;;;;;26.85;18.08;;;;;22.30;99939.00;;;;2044981;28;22160;-62
2024/03/16 00:41:19;;;;;;;30.08;18.55;;;;;22.30;99927.00;;;;2055834;28;20326;-61
2024/03/16 00:42:20;;;;;;;25.80;18.92;;;;;22.30;99927.00;;;;2053113;28;20219;-63
2024/03/16 00:43:20;;;;;;;27.73;18.80;;;;;22.30;99936.00;;;;2052843;28;20223;-63
2024/03/16 00:44:20;;;;;;;32.20;18.67;;;;;22.30;99923.00;;;;2051326;28;21012;-63
2024/03/16 00:45:21;;;;;;;27.23;18.23;;;;;22.30;99918.00;;;;2051472;28;20243;-61
2024/03/16 00:46:22;;;;;;;28.13;18.47;;;;;22.30;99929.00;;;;2045530;28;20217;-61
2024/03/16 00:47:22;;;;;;;26.00;18.00;;;;;22.30;99941.00;;;;2045120;28;20440;-62
2024/03/16 00:48:22;;;;;;;25.70;16.07;;;;;22.30;99926.00;;;;2059726;28;20239;-62
2024/03/16 00:49:23;;;;;;;25.13;17.10;;;;;22.30;99936.00;;;;2045403;28;20212;-61
2024/03/16 00:50:23;;;;;;;23.90;16.53;;;;;22.30;99930.00;;;;2039379;28;20218;-62
2024/03/16 00:51:24;;;;;;;25.87;17.60;;;;;22.30;99935.00;;;;2050139;28;20271;-62
2024/03/16 00:52:24;;;;;;;27.63;17.30;;;;;22.30;99935.00;;;;2040998;28;20208;-62
2024/03/16 00:53:24;;;;;;;28.83;16.57;;;;;22.30;99933.00;;;;2051637;28;20228;-62
2024/03/16 00:54:25;;;;;;;25.10;16.60;;;;;22.20;99933.00;;;;2046361;28;20248;-61
2024/03/16 00:55:25;;;;;;;28.13;16.50;;;;;22.30;99926.00;;;;2033871;28;20223;-60
2024/03/16 00:56:25;;;;;;;25.80;16.83;;;;;22.20;99936.00;;;;2048766;28;20236;-61
2024/03/16 00:57:26;;;;;;;23.90;16.57;;;;;22.30;99925.00;;;;2039719;28;20230;-61
2024/03/16 00:58:27;;;;;;;24.83;15.07;;;;;22.30;99931.00;;;;2044784;28;20220;-62
2024/03/16 00:59:28;;;;;;;24.77;16.70;;;;;22.20;99940.00;;;;2047656;28;20228;-61
2024/03/16 01:00:31;;;;;;;23.77;16.50;;;;;22.20;99930.00;;;;2049762;28;20214;-62
2024/03/16 01:01:34;;;;;;;23.35;14.70;;;;;22.20;99937.00;;;;2053177;28;20223;-62
2024/03/16 01:02:34;;;;;;;25.15;15.75;;;;;22.20;99934.00;;;;2044601;28;20216;-62
2024/03/16 01:03:35;;;;;;;23.77;15.40;;;;;22.20;99944.00;;;;2048858;28;20220;-61
2024/03/16 01:04:36;;;;;;;21.73;14.43;;;;;22.20;99938.00;;;;2058162;28;20219;-62
2024/03/16 01:05:37;;;;;;;22.02;14.52;;;;;22.20;99934.00;;;;2040203;28;20227;-63
2024/03/16 01:06:37;;;;;;;22.40;14.73;;;;;22.20;99945.00;;;;2055617;28;20234;-62
2024/03/16 01:07:37;;;;;;;22.00;14.83;;;;;22.20;99947.00;;;;2068168;28;20244;-63
2024/03/16 01:08:38;;;;;;;21.23;14.50;;;;;22.20;99943.00;;;;2053137;28;20232;-61
2024/03/16 01:09:38;;;;;;;21.23;14.60;;;;;22.20;99943.00;;;;2040864;28;20243;-62
2024/03/16 01:10:38;;;;;;;18.63;13.37;;;;;22.20;99953.00;;;;2063219;28;20214;-62
2024/03/16 01:11:39;;;;;;;20.17;13.83;;;;;22.20;99948.00;;;;2037023;28;20220;-62
2024/03/16 01:12:39;;;;;;;23.20;14.00;;;;;22.20;99942.00;;;;2043292;28;20732;-62
2024/03/16 01:13:39;;;;;;;19.63;14.10;;;;;22.20;99934.00;;;;2052868;28;20740;-62
2024/03/16 01:14:40;;;;;;;23.83;14.10;;;;;22.20;99946.00;;;;2034279;28;20230;-64
2024/03/16 01:15:40;;;;;;;23.67;15.37;;;;;22.20;99947.00;;;;2052497;28;20246;-61
2024/03/16 01:16:41;;;;;;;24.50;14.70;;;;;22.20;99942.00;;;;2060187;28;20238;-62
2024/03/16 01:17:41;;;;;;;22.17;14.70;;;;;22.20;99946.00;;;;2060672;28;20206;-62
2024/03/16 01:18:42;;;;;;;21.30;14.40;;;;;22.20;99947.00;;;;2060962;28;20215;-62
2024/03/16 01:19:43;;;;;;;21.03;13.90;;;;;22.20;99994.00;;;;2052287;28;20210;-61
2024/03/16 01:20:44;;;;;;;20.67;13.63;;;;;22.20;99942.00;;;;2062123;28;20617;-63
2024/03/16 01:21:44;;;;;;;24.33;14.50;;;;;22.20;99940.00;;;;2064834;28;20219;-63
2024/03/16 01:22:45;;;;;;;19.20;13.60;;;;;22.20;99943.00;;;;2052084;28;20238;-63
2024/03/16 01:23:46;;;;;;;23.20;14.03;;;;;22.20;99940.00;;;;2035619;28;20225;-63
2024/03/16 01:24:46;;;;;;;19.57;13.20;;;;;22.20;99941.00;;;;2039810;28;20224;-63
2024/03/16 01:25:47;;;;;;;19.77;14.57;;;;;22.20;99948.00;;;;2054470;28;20825;-63
2024/03/16 01:26:47;;;;;;;21.07;13.90;;;;;22.20;99941.00;;;;2059886;28;20699;-63
2024/03/16 01:27:48;;;;;;;20.87;12.97;;;;;22.20;99942.00;;;;2055106;28;20272;-63
2024/03/16 01:28:48;;;;;;;20.20;13.33;;;;;22.20;99946.00;;;;2044269;28;20228;-63
2024/03/16 01:29:49;;;;;;;21.27;13.47;;;;;22.20;99946.00;;;;2037254;28;20220;-63
2024/03/16 01:30:50;;;;;;;19.20;13.20;;;;;22.10;99951.00;;;;2053198;28;20216;-63
2024/03/16 01:31:51;;;;;;;21.20;13.40;;;;;22.10;99947.00;;;;2044303;28;20219;-63
2024/03/16 01:32:51;;;;;;;20.40;12.57;;;;;22.10;99943.00;;;;2046513;28;20220;-63
2024/03/16 01:33:52;;;;;;;20.00;12.30;;;;;22.10;99946.00;;;;2064152;28;20260;-63
2024/03/16 01:34:52;;;;;;;19.47;13.10;;;;;22.20;99945.00;;;;2051022;28;20222;-63
2024/03/16 01:35:55;;;;;;;18.60;12.60;;;;;22.20;99951.00;;;;2061095;28;20230;-63
2024/03/16 01:36:56;;;;;;;19.30;11.68;;;;;22.20;99954.00;;;;2045798;28;20288;-63
2024/03/16 01:37:57;;;;;;;18.80;12.80;;;;;22.10;99956.00;;;;2038610;28;20250;-63
2024/03/16 01:38:57;;;;;;;18.17;11.93;;;;;22.10;99951.00;;;;2054914;28;20237;-63
2024/03/16 01:39:58;;;;;;;18.70;12.27;;;;;22.10;99943.00;;;;2050682;28;20250;-63
2024/03/16 01:40:58;;;;;;;20.43;11.57;;;;;22.10;99939.00;;;;2059500;28;20227;-62
2024/03/16 01:41:59;;;;;;;16.50;11.33;;;;;22.10;99942.00;;;;2058077;28;20239;-62
2024/03/16 01:42:59;;;;;;;18.57;11.43;;;;;22.10;99947.00;;;;2067953;28;20287;-61
2024/03/16 01:44:10;;;;;;;20.30;10.90;;;;;22.10;99937.00;;;;2067911;28;20579;-65
2024/03/16 01:45:11;;;;;;;16.67;11.27;;;;;22.10;99947.00;;;;2050588;28;20313;-62
2024/03/16 01:46:15;;;;;;;14.60;9.77;;;;;22.10;99951.00;;;;2058280;28;20918;-61
2024/03/16 01:47:16;;;;;;;15.63;9.88;;;;;22.10;99946.00;;;;2053142;28;20338;-62
2024/03/16 01:48:17;;;;;;;16.58;10.77;;;;;22.10;99940.00;;;;2051488;28;20222;-62
2024/03/16 01:49:17;;;;;;;17.07;10.43;;;;;22.10;99944.00;;;;2045161;28;20204;-62
2024/03/16 01:50:18;;;;;;;16.27;10.73;;;;;22.10;99945.00;;;;2026873;28;20213;-62
2024/03/16 01:51:19;;;;;;;16.10;10.27;;;;;22.10;99959.00;;;;2042185;28;20348;-62
2024/03/16 01:52:20;;;;;;;14.90;10.63;;;;;22.10;99950.00;;;;2047464;28;20452;-62
2024/03/16 01:53:20;;;;;;;17.52;11.07;;;;;22.10;99943.00;;;;2066319;28;20213;-62
2024/03/16 01:54:21;;;;;;;15.87;10.13;;;;;22.10;99953.00;;;;2051211;28;20245;-62
2024/03/16 01:55:21;;;;;;;16.90;10.60;;;;;22.10;99949.00;;;;2039782;28;20207;-62
2024/03/16 01:56:22;;;;;;;18.27;10.57;;;;;22.10;99940.00;;;;2049160;28;20211;-61
2024/03/16 01:57:22;;;;;;;17.47;11.10;;;;;22.10;99951.00;;;;2055277;28;20948;-62
2024/03/16 01:58:22;;;;;;;14.77;9.40;;;;;22.10;99956.00;;;;2068993;28;20210;-62
2024/03/16 01:59:22;;;;;;;17.17;11.13;;;;;22.10;99776.00;;;;2059954;28;20294;-64
2024/03/16 02:00:23;;;;;;;15.93;9.40;;;;;22.10;99948.00;;;;2050849;28;20218;-63
2024/03/16 02:01:25;;;;;;;14.07;9.80;;;;;22.10;99957.00;;;;2044810;28;20918;-61
2024/03/16 02:02:34;;;;;;;15.48;10.75;;;;;22.10;99948.00;;;;2037883;28;20473;-62
2024/03/16 02:03:34;;;;;;;13.68;10.02;;;;;22.10;99957.00;;;;2037977;28;20227;-61
2024/03/16 02:04:34;;;;;;;14.40;9.97;;;;;22.10;99962.00;;;;2037450;28;20215;-61
2024/03/16 02:05:36;;;;;;;16.73;9.27;;;;;22.10;99954.00;;;;2038351;28;20228;-61
2024/03/16 02:06:36;;;;;;;15.38;10.18;;;;;22.10;99953.00;;;;2052256;28;20296;-61
2024/03/16 02:07:37;;;;;;;15.00;10.40;;;;;22.00;99949.00;;;;2049517;28;20322;-61
2024/03/16 02:08:38;;;;;;;14.77;9.70;;;;;22.00;99946.00;;;;2055943;28;20311;-63
2024/03/16 02:09:39;;;;;;;15.33;10.33;;;;;22.00;99964.00;;;;2052958;28;20221;-63
2024/03/16 02:10:39;;;;;;;12.67;8.50;;;;;22.10;99943.00;;;;2056390;28;20243;-62
2024/03/16 02:11:39;;;;;;;13.77;8.63;;;;;22.00;99961.00;;;;2057479;28;20454;-63
2024/03/16 02:12:40;;;;;;;15.00;9.30;;;;;22.10;99961.00;;;;2056770;28;20278;-62
2024/03/16 02:13:40;;;;;;;14.07;8.60;;;;;22.00;99950.00;;;;2065367;28;20599;-62
2024/03/16 02:14:42;;;;;;;14.80;9.03;;;;;22.00;99942.00;;;;2050111;28;20469;-62
2024/03/16 02:15:42;;;;;;;13.18;9.70;;;;;22.00;99963.00;;;;2043484;28;20240;-63
2024/03/16 02:16:44;;;;;;;14.40;8.70;;;;;22.10;99951.00;;;;2045344;28;20219;-62
2024/03/16 02:17:46;;;;;;;14.45;8.70;;;;;22.00;99953.00;;;;2052958;28;20224;-62
2024/03/16 02:18:46;;;;;;;13.75;9.18;;;;;22.00;99949.00;;;;2060304;28;20222;-62
2024/03/16 02:19:47;;;;;;;13.53;8.57;;;;;22.00;99951.00;;;;2058611;28;20593;-62
2024/03/16 02:20:47;;;;;;;12.93;9.02;;;;;22.00;99945.00;;;;2060297;28;20219;-62
2024/03/16 02:21:48;;;;;;;11.17;8.73;;;;;22.00;99948.00;;;;2053473;28;20219;-65
2024/03/16 02:22:49;;;;;;;12.93;8.10;;;;;21.50;99954.00;;;;2055352;28;20657;-62
2024/03/16 02:23:50;;;;;;;13.20;8.90;;;;;22.00;99943.00;;;;2061901;28;20218;-62
2024/03/16 02:24:50;;;;;;;13.50;8.63;;;;;22.00;99899.00;;;;2040215;28;20235;-66
2024/03/16 02:25:50;;;;;;;13.20;7.90;;;;;22.10;99951.00;;;;2046459;28;20238;-61
2024/03/16 02:26:51;;;;;;;13.70;7.97;;;;;22.00;99947.00;;;;2051555;28;20239;-61
2024/03/16 02:27:51;;;;;;;12.53;8.00;;;;;22.10;99950.00;;;;2046507;28;20244;-62
2024/03/16 02:28:52;;;;;;;12.40;8.93;;;;;22.00;99962.00;;;;2049062;28;20629;-62
2024/03/16 02:29:52;;;;;;;13.27;8.20;;;;;22.00;100014.00;;;;2036600;28;20604;-62
2024/03/16 02:30:52;;;;;;;12.17;7.97;;;;;22.00;99955.00;;;;2053320;28;20599;-61
2024/03/16 02:31:53;;;;;;;13.73;7.93;;;;;22.00;99954.00;;;;2046030;28;20585;-61
2024/03/16 02:32:54;;;;;;;10.15;7.50;;;;;22.00;99967.00;;;;2050690;28;20727;-61
2024/03/16 02:33:55;;;;;;;12.90;7.80;;;;;22.00;99961.00;;;;2056412;28;20216;-61
2024/03/16 02:34:55;;;;;;;12.13;8.05;;;;;22.00;99969.00;;;;2049800;28;20223;-61
2024/03/16 02:35:57;;;;;;;11.93;7.80;;;;;22.00;99968.00;;;;2058000;28;20663;-61
2024/03/16 02:36:57;;;;;;;12.70;8.05;;;;;22.00;99969.00;;;;2052627;28;20696;-61
2024/03/16 02:37:58;;;;;;;12.93;8.23;;;;;22.00;99978.00;;;;2042023;28;20227;-61
2024/03/16 02:38:58;;;;;;;12.53;7.60;;;;;22.00;99971.00;;;;2044620;28;20236;-61
2024/03/16 02:39:59;;;;;;;12.10;7.70;;;;;22.00;99989.00;;;;2041531;28;20236;-61
2024/03/16 02:40:59;;;;;;;11.00;8.00;;;;;22.00;99972.00;;;;2047226;28;20595;-61
2024/03/16 02:42:00;;;;;;;11.50;8.20;;;;;22.00;99962.00;;;;2050728;28;20672;-61
2024/03/16 02:43:00;;;;;;;13.73;7.37;;;;;22.00;99969.00;;;;2046880;28;20723;-61
2024/03/16 02:44:00;;;;;;;10.63;7.17;;;;;22.00;99973.00;;;;2052690;28;20491;-61
2024/03/16 02:45:01;;;;;;;12.10;7.07;;;;;22.00;99943.00;;;;2046759;28;20276;-62
2024/03/16 02:46:02;;;;;;;11.07;6.60;;;;;22.00;99964.00;;;;2067163;28;20222;-60
2024/03/16 02:47:04;;;;;;;9.95;7.05;;;;;22.00;99959.00;;;;2061064;28;20297;-61
2024/03/16 02:48:05;;;;;;;10.82;7.25;;;;;22.00;99960.00;;;;2060944;28;20221;-61
2024/03/16 02:49:05;;;;;;;8.63;6.23;;;;;22.00;99965.00;;;;2061954;28;20704;-61
2024/03/16 02:50:06;;;;;;;12.80;7.60;;;;;22.00;99910.00;;;;2039464;28;20243;-64
2024/03/16 02:51:07;;;;;;;11.52;7.07;;;;;22.00;99970.00;;;;2049856;28;20220;-61
2024/03/16 02:52:09;;;;;;;11.17;6.80;;;;;22.00;99976.00;;;;2061577;28;20300;-62
2024/03/16 02:53:09;;;;;;;11.70;7.40;;;;;22.00;99970.00;;;;2052482;28;20219;-63
2024/03/16 02:54:09;;;;;;;11.33;7.10;;;;;22.00;99963.00;;;;2047651;28;20641;-65
2024/03/16 02:55:10;;;;;;;9.87;6.50;;;;;22.00;99972.00;;;;2041411;28;20237;-63
2024/03/16 02:56:12;;;;;;;9.23;6.53;;;;;22.00;99975.00;;;;2049938;28;20269;-62
2024/03/16 02:57:13;;;;;;;9.82;6.30;;;;;22.00;99978.00;;;;2060561;28;20702;-62
2024/03/16 02:58:13;;;;;;;10.63;6.37;;;;;22.00;99976.00;;;;2053545;28;20219;-62
2024/03/16 02:59:13;;;;;;;9.87;6.80;;;;;22.00;99971.00;;;;2060088;28;20215;-62
2024/03/16 03:00:16;;;;;;;10.90;6.77;;;;;22.00;99973.00;;;;2043499;28;20239;-63
2024/03/16 03:01:17;;;;;;;11.52;7.20;;;;;22.00;99979.00;;;;2043824;28;20289;-61
2024/03/16 03:02:22;;;;;;;10.60;6.73;;;;;22.00;99973.00;;;;2045206;28;20216;-61
2024/03/16 03:03:24;;;;;;;9.55;6.13;;;;;21.90;99979.00;;;;2044006;28;20223;-61
2024/03/16 03:04:24;;;;;;;10.30;6.35;;;;;22.00;99979.00;;;;2053015;28;20751;-61
2024/03/16 03:05:24;;;;;;;11.43;6.23;;;;;22.00;99988.00;;;;2041629;28;20220;-61
2024/03/16 03:06:27;;;;;;;8.00;5.70;;;;;22.00;99984.00;;;;2049981;28;20224;-61
2024/03/16 03:07:28;;;;;;;10.57;6.43;;;;;22.00;99974.00;;;;2060578;28;20314;-62
2024/03/16 03:08:28;;;;;;;10.07;6.97;;;;;21.90;99981.00;;;;2051458;28;20215;-61
2024/03/16 03:09:29;;;;;;;10.17;6.27;;;;;22.00;99988.00;;;;2053806;28;20757;-61
2024/03/16 03:10:29;;;;;;;9.57;5.73;;;;;22.00;99988.00;;;;2036534;28;20249;-60
2024/03/16 03:11:29;;;;;;;8.67;5.87;;;;;22.00;99991.00;;;;2053365;28;20219;-62
2024/03/16 03:12:30;;;;;;;9.77;5.63;;;;;22.00;99981.00;;;;2051933;28;20305;-61
2024/03/16 03:13:30;;;;;;;9.57;5.90;;;;;22.00;99979.00;;;;2061179;28;20250;-61
2024/03/16 03:14:31;;;;;;;9.33;6.00;;;;;22.00;99990.00;;;;2056719;28;20227;-60
2024/03/16 03:15:33;;;;;;;8.90;5.60;;;;;21.90;99998.00;;;;2038713;28;20258;-62
2024/03/16 03:16:34;;;;;;;11.45;6.80;;;;;21.90;99991.00;;;;2058009;28;20230;-61
2024/03/16 03:17:34;;;;;;;7.53;5.70;;;;;21.90;99999.00;;;;2057224;28;20225;-62
2024/03/16 03:18:34;;;;;;;10.50;6.33;;;;;21.90;99990.00;;;;2045454;28;20224;-62
2024/03/16 03:19:35;;;;;;;9.27;6.10;;;;;21.90;99998.00;;;;2044005;28;20251;-62
2024/03/16 03:20:35;;;;;;;8.90;5.67;;;;;21.90;99995.00;;;;2047933;28;20680;-60
2024/03/16 03:21:35;;;;;;;8.17;6.03;;;;;21.90;99996.00;;;;2056175;28;20928;-60
2024/03/16 03:22:36;;;;;;;9.33;5.90;;;;;21.90;99999.00;;;;2048526;28;20224;-61
2024/03/16 03:23:36;;;;;;;10.57;5.27;;;;;21.90;99999.00;;;;2047924;28;20224;-61
2024/03/16 03:24:36;;;;;;;10.43;5.50;;;;;21.90;99996.00;;;;2044052;28;21064;-62
2024/03/16 03:25:37;;;;;;;7.87;5.70;;;;;21.90;100051.00;;;;2048678;28;21050;-61
2024/03/16 03:26:37;;;;;;;8.70;5.00;;;;;21.90;99998.00;;;;2051464;28;20873;-61
2024/03/16 03:27:37;;;;;;;9.07;5.17;;;;;22.00;99999.00;;;;2055429;28;20758;-60
2024/03/16 03:28:37;;;;;;;8.10;5.60;;;;;22.00;100000.00;;;;2061593;28;20722;-61
2024/03/16 03:29:38;;;;;;;9.87;5.37;;;;;21.90;99999.00;;;;2054727;28;20679;-61
2024/03/16 03:30:38;;;;;;;9.37;5.20;;;;;21.90;99996.00;;;;2053271;28;20352;-61
2024/03/16 03:31:38;;;;;;;8.63;4.90;;;;;22.00;99998.00;;;;2049450;28;20650;-61
2024/03/16 03:32:39;;;;;;;10.57;5.57;;;;;21.90;99998.00;;;;2043053;28;20287;-61
2024/03/16 03:33:40;;;;;;;7.40;5.03;;;;;21.90;100010.00;;;;2035774;29;20217;-60
2024/03/16 03:34:40;;;;;;;8.27;4.93;;;;;21.90;99780.00;;;;2032721;28;20304;-62
2024/03/16 03:35:40;;;;;;;8.40;5.00;;;;;21.90;100000.00;;;;2062957;28;20817;-61
2024/03/16 03:36:44;;;;;;;7.77;5.10;;;;;22.00;100003.00;;;;2055619;28;20584;-64
2024/03/16 03:37:44;;;;;;;8.50;5.00;;;;;21.90;100007.00;;;;2059492;28;20690;-64
2024/03/16 03:38:44;;;;;;;8.10;5.17;;;;;21.90;99999.00;;;;2056012;28;20246;-62
2024/03/16 03:39:48;;;;;;;7.33;4.30;;;;;21.90;100003.00;;;;2050291;28;22099;-61
2024/03/16 03:40:48;;;;;;;7.50;4.70;;;;;21.90;100003.00;;;;2059467;28;20815;-64
2024/03/16 03:41:49;;;;;;;7.40;5.00;;;;;21.90;100010.00;;;;2046598;28;20295;-62
2024/03/16 03:42:52;;;;;;;8.23;5.47;;;;;21.90;100011.00;;;;2043253;28;20228;-62
2024/03/16 03:43:59;;;;;;;8.20;4.75;;;;;21.90;100005.00;;;;2059520;28;20311;-64
2024/03/16 03:45:24;;;;;;;7.95;4.70;;;;;21.90;99997.00;;;;2056232;28;20226;-61
2024/03/16 03:46:49;;;;;;;6.50;4.30;;;;;21.90;100010.00;;;;2055191;28;20243;-61
2024/03/16 03:49:14;;;;;;;8.48;4.13;;;;;21.90;100012.00;;;;2046572;28;20223;-62
2024/03/16 03:50:23;;;;;;;7.70;4.20;;;;;21.90;100037.00;;;;2035166;28;20299;-64
2024/03/16 03:51:23;;;;;;;6.90;4.20;;;;;21.90;100016.00;;;;2050445;28;20310;-62
2024/03/16 03:52:23;;;;;;;6.40;4.20;;;;;21.90;100009.00;;;;2052319;28;20212;-62
2024/03/16 03:53:25;;;;;;;9.43;4.60;;;;;21.90;100015.00;;;;2052780;28;20248;-61
2024/03/16 03:54:25;;;;;;;6.05;3.70;;;;;21.90;100017.00;;;;2054230;28;20214;-60
2024/03/16 03:55:26;;;;;;;9.17;4.60;;;;;21.90;100015.00;;;;2036137;28;20219;-61
2024/03/16 03:56:26;;;;;;;7.80;4.27;;;;;21.90;100025.00;;;;2050903;28;20216;-61
2024/03/16 03:57:26;;;;;;;7.00;4.27;;;;;21.90;100022.00;;;;2042164;28;21057;-61
2024/03/16 03:58:27;;;;;;;7.03;4.07;;;;;21.90;100011.00;;;;2045954;28;20212;-62
2024/03/16 03:59:27;;;;;;;9.40;5.13;;;;;21.90;100026.00;;;;2034387;29;20224;-61
2024/03/16 04:00:28;;;;;;;7.17;3.80;;;;;21.90;100026.00;;;;2020455;29;20296;-61
2024/03/16 04:01:29;;;;;;;7.15;4.65;;;;;21.90;100011.00;;;;2051574;28;20211;-61
2024/03/16 04:02:29;;;;;;;7.53;4.30;;;;;21.90;100029.00;;;;2050821;28;20216;-61
2024/03/16 04:03:29;;;;;;;8.20;4.30;;;;;21.90;100033.00;;;;2050024;28;20262;-61
2024/03/16 04:04:30;;;;;;;7.13;3.93;;;;;21.90;100019.00;;;;2050793;28;20215;-61
2024/03/16 04:05:30;;;;;;;7.00;4.23;;;;;21.90;100032.00;;;;2036416;28;20254;-61
2024/03/16 04:06:31;;;;;;;7.97;3.90;;;;;21.90;100023.00;;;;2057920;28;20295;-62
2024/03/16 04:07:31;;;;;;;8.27;4.23;;;;;21.90;100026.00;;;;2050235;28;20302;-61
2024/03/16 04:08:31;;;;;;;6.30;3.33;;;;;21.90;100026.00;;;;2051365;28;20243;-61
2024/03/16 04:09:31;;;;;;;7.00;3.73;;;;;21.90;100025.00;;;;2052194;28;20231;-61
2024/03/16 04:10:35;;;;;;;7.53;4.10;;;;;21.90;100029.00;;;;2042148;28;20278;-61
2024/03/16 04:11:35;;;;;;;6.50;4.13;;;;;21.90;100027.00;;;;2057629;28;20222;-62
2024/03/16 04:12:36;;;;;;;6.23;3.80;;;;;21.90;100022.00;;;;2050330;28;20254;-60
2024/03/16 04:13:36;;;;;;;5.30;3.50;;;;;21.90;100032.00;;;;2053247;28;20227;-61
2024/03/16 04:14:37;;;;;;;4.77;3.33;;;;;21.90;100028.00;;;;2046547;28;20226;-61
2024/03/16 04:15:37;;;;;;;6.77;3.67;;;;;21.90;100033.00;;;;2038056;28;20260;-61
2024/03/16 04:16:38;;;;;;;6.50;4.20;;;;;21.80;100030.00;;;;2045383;28;20239;-62
2024/03/16 04:17:38;;;;;;;5.93;3.93;;;;;21.90;100024.00;;;;2052453;28;20220;-61
2024/03/16 04:18:39;;;;;;;6.10;3.23;;;;;21.90;100032.00;;;;2049535;28;20243;-61
2024/03/16 04:19:39;;;;;;;7.27;4.23;;;;;21.90;100031.00;;;;2037385;28;20231;-62
2024/03/16 04:20:39;;;;;;;6.40;3.87;;;;;21.90;100039.00;;;;2055820;28;20222;-61
2024/03/16 04:21:42;;;;;;;4.40;2.40;;;;;21.80;100035.00;;;;2047176;28;20310;-61
2024/03/16 04:22:42;;;;;;;7.43;3.58;;;;;21.80;100031.00;;;;2043148;28;20220;-64
2024/03/16 04:23:43;;;;;;;5.97;3.20;;;;;21.90;100039.00;;;;2036452;28;20247;-63
2024/03/16 04:24:44;;;;;;;6.68;3.95;;;;;21.80;100039.00;;;;2031884;28;20280;-61
2024/03/16 04:25:44;;;;;;;6.70;3.93;;;;;21.80;100038.00;;;;2058821;28;20602;-61
2024/03/16 04:26:44;;;;;;;6.93;3.63;;;;;21.80;100044.00;;;;2052075;28;20699;-64
2024/03/16 04:27:45;;;;;;;5.07;3.33;;;;;21.80;100036.00;;;;2044657;28;20594;-62
2024/03/16 04:28:45;;;;;;;5.90;3.10;;;;;21.80;100034.00;;;;2048439;28;20259;-61
2024/03/16 04:29:45;;;;;;;7.37;3.33;;;;;21.90;100035.00;;;;2040390;28;20265;-61
2024/03/16 04:30:46;;;;;;;5.60;3.20;;;;;21.80;100041.00;;;;2053344;28;20305;-62
2024/03/16 04:31:46;;;;;;;5.57;3.30;;;;;21.80;100037.00;;;;2049694;28;20254;-61
2024/03/16 04:32:46;;;;;;;5.80;3.13;;;;;21.80;100048.00;;;;2054009;28;20219;-61
2024/03/16 04:33:47;;;;;;;6.27;3.30;;;;;21.30;100048.00;;;;2044072;28;20216;-61
2024/03/16 04:34:47;;;;;;;8.07;3.33;;;;;21.80;100050.00;;;;2044564;28;20302;-61
2024/03/16 04:35:48;;;;;;;6.33;3.30;;;;;21.90;100047.00;;;;2050739;28;20742;-62
2024/03/16 04:36:48;;;;;;;5.23;2.87;;;;;21.80;100044.00;;;;2049017;28;21004;-61
2024/03/16 04:37:49;;;;;;;5.60;3.23;;;;;21.80;100047.00;;;;2054553;28;20788;-62
2024/03/16 04:38:49;;;;;;;6.20;3.57;;;;;21.80;100054.00;;;;2049478;28;20761;-62
2024/03/16 04:39:49;;;;;;;5.00;3.17;;;;;21.80;100056.00;;;;2041912;28;20223;-61
2024/03/16 04:40:50;;;;;;;5.90;3.10;;;;;21.80;100064.00;;;;2050145;28;20280;-61
2024/03/16 04:41:50;;;;;;;5.47;2.90;;;;;21.80;100058.00;;;;2054068;28;20216;-61
2024/03/16 04:42:51;;;;;;;5.37;3.27;;;;;21.80;100058.00;;;;2057056;28;20215;-61
2024/03/16 04:43:51;;;;;;;4.60;3.10;;;;;21.80;100061.00;;;;2049345;28;20251;-61
2024/03/16 04:44:52;;;;;;;4.97;3.03;;;;;21.80;100056.00;;;;2039173;28;20255;-61
2024/03/16 04:45:52;;;;;;;5.70;3.50;;;;;21.80;100064.00;;;;2048530;28;20616;-61
2024/03/16 04:46:54;;;;;;;6.23;3.00;;;;;21.80;100068.00;;;;2048621;28;20230;-61
2024/03/16 04:47:54;;;;;;;6.03;3.20;;;;;21.80;100063.00;;;;2042987;28;20221;-61
2024/03/16 04:48:55;;;;;;;4.87;3.20;;;;;21.80;100059.00;;;;2030755;29;20217;-62
2024/03/16 04:49:55;;;;;;;4.40;3.00;;;;;21.40;100066.00;;;;2034099;28;20295;-61
2024/03/16 04:50:56;;;;;;;5.10;2.80;;;;;21.80;100017.00;;;;2050833;28;20237;-61
2024/03/16 04:51:56;;;;;;;6.40;3.40;;;;;21.80;100019.00;;;;2052727;28;20212;-61
2024/03/16 04:52:56;;;;;;;5.77;3.37;;;;;21.80;100062.00;;;;2045435;28;20251;-61
2024/03/16 04:53:57;;;;;;;5.60;2.87;;;;;21.80;100066.00;;;;2052774;28;20208;-61
2024/03/16 04:54:57;;;;;;;5.30;3.23;;;;;21.80;100058.00;;;;2044677;28;20228;-61
2024/03/16 04:55:58;;;;;;;6.23;3.10;;;;;21.80;100054.00;;;;2048338;28;20329;-61
2024/03/16 04:56:59;;;;;;;5.18;3.15;;;;;21.80;100061.00;;;;2042922;28;20205;-61
2024/03/16 04:58:04;;;;;;;5.43;3.13;;;;;21.80;100060.00;;;;2048026;28;20591;-61
2024/03/16 04:59:04;;;;;;;5.20;3.00;;;;;21.80;100059.00;;;;2051096;28;20220;-60
2024/03/16 05:00:07;;;;;;;4.70;2.80;;;;;21.80;100028.00;;;;2047226;28;20226;-61
2024/03/16 05:01:09;;;;;;;4.75;2.80;;;;;21.80;100058.00;;;;2052548;28;20234;-61
2024/03/16 05:02:09;;;;;;;4.32;2.85;;;;;21.80;100066.00;;;;2048642;28;20606;-62